createdAt,value
2018-08-31T00:01:50.950Z,15.03
2018-08-31T00:04:40.969Z,14.87
2018-08-31T00:07:30.887Z,14.23
2018-08-31T00:13:21.676Z,14.83
2018-08-31T00:15:53.663Z,14.10
2018-08-31T00:18:26.133Z,14.97
2018-08-31T00:20:58.744Z,14.33
2018-08-31T00:23:46.873Z,15.20
2018-08-31T00:26:34.920Z,15.30
2018-08-31T00:29:55.319Z,14.23
2018-08-31T00:32:46.016Z,14.53
2018-08-31T00:35:36.983Z,14.73
2018-08-31T00:40:32.230Z,14.10
2018-08-31T00:45:33.315Z,14.73
2018-08-31T00:48:05.735Z,14.10
2018-08-31T00:50:38.076Z,14.80
2018-08-31T00:53:11.243Z,14.13
2018-08-31T00:55:43.310Z,15.00
2018-08-31T00:58:15.337Z,13.60
2018-08-31T01:00:48.034Z,14.13
2018-08-31T01:03:20.574Z,13.97
2018-08-31T01:05:52.504Z,14.77
2018-08-31T01:08:24.575Z,14.80
2018-08-31T01:10:56.512Z,14.30
2018-08-31T01:13:28.589Z,13.53
2018-08-31T01:16:00.670Z,14.17
2018-08-31T01:18:32.776Z,15.70
2018-08-31T01:21:04.787Z,14.73
2018-08-31T01:23:37.084Z,14.17
2018-08-31T01:26:09.224Z,14.37
2018-08-31T01:28:41.251Z,14.30
2018-08-31T01:31:13.962Z,13.13
2018-08-31T01:33:46.069Z,14.13
2018-08-31T01:36:19.218Z,15.80
2018-08-31T01:38:51.079Z,13.57
2018-08-31T01:41:23.096Z,13.67
2018-08-31T01:43:55.000Z,13.67
2018-08-31T01:46:28.803Z,14.23
2018-08-31T01:49:00.842Z,13.33
2018-08-31T01:51:32.657Z,14.07
2018-08-31T01:54:04.701Z,13.67
2018-08-31T01:56:36.441Z,13.73
2018-08-31T01:59:08.507Z,15.07
2018-08-31T02:01:40.774Z,14.97
2018-08-31T02:04:14.134Z,14.00
2018-08-31T02:06:46.197Z,14.27
2018-08-31T02:09:19.962Z,14.67
2018-08-31T02:11:52.962Z,14.77
2018-08-31T02:14:25.346Z,14.23
2018-08-31T02:16:57.195Z,14.63
2018-08-31T02:19:28.950Z,14.53
2018-08-31T02:22:01.069Z,15.00
2018-08-31T02:24:33.211Z,14.67
2018-08-31T02:27:05.401Z,15.63
2018-08-31T02:29:37.172Z,14.00
2018-08-31T02:32:08.989Z,15.23
2018-08-31T02:34:40.959Z,14.17
2018-08-31T02:37:13.056Z,14.53
2018-08-31T02:39:45.316Z,14.50
2018-08-31T02:42:17.266Z,15.50
2018-08-31T02:44:49.510Z,15.00
2018-08-31T02:47:21.721Z,13.83
2018-08-31T02:49:53.765Z,14.73
2018-08-31T02:52:26.312Z,14.33
2018-08-31T02:54:58.402Z,14.57
2018-08-31T02:57:30.543Z,14.30
2018-08-31T03:00:02.706Z,14.93
2018-08-31T03:02:34.792Z,15.20
2018-08-31T03:05:06.892Z,14.87
2018-08-31T03:07:38.829Z,15.07
2018-08-31T03:10:12.025Z,14.77
2018-08-31T03:12:44.112Z,14.80
2018-08-31T03:15:16.008Z,14.43
2018-08-31T03:17:48.183Z,14.57
2018-08-31T03:20:20.154Z,15.10
2018-08-31T03:22:52.062Z,15.50
2018-08-31T03:25:25.534Z,13.50
2018-08-31T03:27:57.620Z,13.77
2018-08-31T03:30:30.093Z,13.43
2018-08-31T03:33:02.209Z,13.53
2018-08-31T03:35:34.361Z,14.63
2018-08-31T03:38:06.491Z,14.60
2018-08-31T03:40:38.929Z,14.10
2018-08-31T03:43:11.111Z,14.70
2018-08-31T03:45:43.247Z,15.97
2018-08-31T03:48:14.929Z,14.17
2018-08-31T03:50:47.093Z,14.53
2018-08-31T03:53:20.857Z,14.87
2018-08-31T03:55:55.574Z,14.87
2018-08-31T03:58:31.625Z,15.63
2018-08-31T04:01:13.437Z,14.70
2018-08-31T04:03:50.731Z,15.13
2018-08-31T04:06:28.195Z,14.87
2018-08-31T04:09:00.595Z,14.87
2018-08-31T04:11:33.751Z,15.97
2018-08-31T04:14:05.746Z,14.60
2018-08-31T04:16:37.667Z,14.53
2018-08-31T04:19:17.304Z,15.10
2018-08-31T04:21:49.752Z,15.70
2018-08-31T04:24:23.527Z,14.27
2018-08-31T04:26:55.770Z,13.73
2018-08-31T04:29:27.977Z,14.03
2018-08-31T04:32:00.276Z,13.73
2018-08-31T04:34:32.463Z,13.97
2018-08-31T04:37:04.975Z,13.73
2018-08-31T04:39:37.735Z,14.70
2018-08-31T04:42:11.890Z,14.10
2018-08-31T04:44:43.988Z,15.53
2018-08-31T04:47:16.235Z,15.13
2018-08-31T04:49:48.591Z,13.50
2018-08-31T04:52:22.398Z,15.03
2018-08-31T04:54:58.343Z,14.43
2018-08-31T04:57:35.472Z,13.63
2018-08-31T05:00:12.554Z,13.30
2018-08-31T05:02:44.965Z,13.40
2018-08-31T05:05:17.752Z,14.03
2018-08-31T05:07:50.747Z,14.43
2018-08-31T05:10:22.797Z,14.87
2018-08-31T05:12:59.193Z,13.83
2018-08-31T05:15:31.652Z,13.90
2018-08-31T05:18:04.498Z,13.90
2018-08-31T05:20:38.132Z,15.67
2018-08-31T05:23:22.611Z,14.80
2018-08-31T05:25:58.930Z,15.00
2018-08-31T05:28:34.001Z,13.13
2018-08-31T05:31:06.518Z,12.53
2018-08-31T05:33:39.665Z,12.37
2018-08-31T05:36:11.796Z,15.53
2018-08-31T05:38:44.186Z,15.00
2018-08-31T05:41:16.276Z,13.57
2018-08-31T05:43:50.372Z,14.47
2018-08-31T05:46:25.924Z,14.37
2018-08-31T05:48:58.642Z,14.17
2018-08-31T05:51:31.032Z,16.03
2018-08-31T05:54:03.565Z,14.37
2018-08-31T05:56:35.869Z,14.20
2018-08-31T05:59:08.073Z,16.90
2018-08-31T06:01:40.144Z,14.47
2018-08-31T06:04:12.772Z,16.47
2018-08-31T06:06:45.340Z,15.27
2018-08-31T06:09:18.519Z,15.37
2018-08-31T06:11:51.588Z,16.13
2018-08-31T06:14:24.118Z,16.30
2018-08-31T06:16:56.461Z,14.70
2018-08-31T06:19:28.826Z,15.07
2018-08-31T06:22:01.086Z,14.40
2018-08-31T06:24:34.016Z,13.93
2018-08-31T06:27:06.698Z,15.50
2018-08-31T06:29:39.067Z,14.63
2018-08-31T06:32:11.494Z,13.07
2018-08-31T06:34:45.480Z,14.20
2018-08-31T06:37:17.769Z,15.07
2018-08-31T06:39:50.183Z,13.47
2018-08-31T06:42:21.990Z,13.53
2018-08-31T06:44:54.669Z,13.83
2018-08-31T06:47:26.908Z,14.50
2018-08-31T06:49:58.754Z,15.13
2018-08-31T06:52:32.736Z,15.17
2018-08-31T06:55:05.081Z,14.37
2018-08-31T06:57:37.436Z,14.87
2018-08-31T07:00:10.431Z,14.07
2018-08-31T07:02:42.468Z,14.97
2018-08-31T07:05:14.885Z,14.37
2018-08-31T07:07:48.344Z,15.20
2018-08-31T07:10:20.709Z,12.90
2018-08-31T07:12:53.014Z,13.63
2018-08-31T07:15:24.983Z,13.57
2018-08-31T07:17:57.849Z,13.13
2018-08-31T07:20:32.039Z,12.57
2018-08-31T07:23:04.703Z,12.90
2018-08-31T07:25:36.911Z,13.73
2018-08-31T07:28:09.212Z,15.30
2018-08-31T07:30:42.053Z,14.93
2018-08-31T07:33:14.603Z,15.10
2018-08-31T07:35:46.455Z,14.23
2018-08-31T07:38:18.588Z,13.33
2018-08-31T07:40:51.060Z,15.80
2018-08-31T07:43:23.752Z,15.43
2018-08-31T07:45:56.167Z,15.07
2018-08-31T07:48:28.407Z,15.37
2018-08-31T07:51:00.600Z,14.63
2018-08-31T07:53:33.369Z,14.27
2018-08-31T07:56:05.646Z,14.37
2018-08-31T07:58:37.837Z,14.77
2018-08-31T08:01:10.107Z,14.60
2018-08-31T08:03:42.703Z,13.97
2018-08-31T08:06:15.822Z,13.60
2018-08-31T08:08:48.368Z,14.70
2018-08-31T08:11:20.600Z,13.27
2018-08-31T08:13:53.581Z,13.33
2018-08-31T08:16:25.769Z,13.57
2018-08-31T08:18:58.198Z,12.17
2018-08-31T08:21:31.455Z,13.77
2018-08-31T08:24:03.699Z,12.93
2018-08-31T08:26:36.824Z,12.87
2018-08-31T08:29:09.282Z,12.93
2018-08-31T08:31:41.105Z,14.43
2018-08-31T08:34:13.303Z,13.20
2018-08-31T08:36:46.079Z,12.17
2018-08-31T08:39:18.429Z,12.60
2018-08-31T08:41:50.804Z,12.97
2018-08-31T08:44:24.187Z,12.03
2018-08-31T08:46:56.494Z,11.53
2018-08-31T08:49:28.372Z,11.90
2018-08-31T08:52:00.633Z,11.90
2018-08-31T08:54:32.966Z,11.33
2018-08-31T08:57:04.988Z,11.10
2018-08-31T08:59:37.268Z,10.83
2018-08-31T09:02:09.228Z,11.43
2018-08-31T09:04:41.316Z,10.10
2018-08-31T09:07:16.459Z,10.37
2018-08-31T09:09:49.654Z,11.10
2018-08-31T09:12:22.677Z,10.30
2018-08-31T09:14:55.037Z,11.00
2018-08-31T09:17:27.635Z,10.97
2018-08-31T09:20:00.427Z,10.43
2018-08-31T09:22:32.927Z,10.33
2018-08-31T09:25:06.434Z,10.87
2018-08-31T09:27:39.367Z,11.47
2018-08-31T09:30:16.836Z,10.67
2018-08-31T09:32:49.377Z,10.23
2018-08-31T09:35:21.696Z,10.40
2018-08-31T09:37:53.778Z,10.57
2018-08-31T09:40:25.687Z,10.73
2018-08-31T09:42:57.503Z,9.97
2018-08-31T09:45:30.101Z,10.70
2018-08-31T09:48:02.286Z,9.43
2018-08-31T09:50:35.065Z,10.43
2018-08-31T09:53:07.330Z,11.03
2018-08-31T09:55:39.738Z,9.67
2018-08-31T09:58:12.139Z,9.97
2018-08-31T10:00:49.295Z,10.40
2018-08-31T10:03:23.722Z,10.40
2018-08-31T10:05:56.920Z,9.80
2018-08-31T10:08:29.753Z,10.73
2018-08-31T10:11:02.284Z,10.30
2018-08-31T10:13:34.693Z,10.07
2018-08-31T10:16:07.376Z,10.47
2018-08-31T10:18:39.217Z,10.30
2018-08-31T10:21:11.859Z,10.63
2018-08-31T10:23:44.197Z,10.37
2018-08-31T10:26:16.419Z,10.17
2018-08-31T10:28:49.143Z,10.80
2018-08-31T10:31:21.608Z,9.80
2018-08-31T10:33:53.868Z,10.30
2018-08-31T10:36:26.241Z,10.60
2018-08-31T10:38:58.482Z,10.00
2018-08-31T10:41:31.382Z,10.27
2018-08-31T10:44:03.857Z,9.90
2018-08-31T10:46:36.284Z,9.90
2018-08-31T10:49:08.329Z,10.60
2018-08-31T10:51:41.037Z,9.60
2018-08-31T10:54:13.920Z,10.27
2018-08-31T10:56:46.852Z,9.17
2018-08-31T10:59:19.613Z,9.47
2018-08-31T11:01:52.163Z,9.87
2018-08-31T11:04:24.912Z,10.10
2018-08-31T11:06:57.750Z,10.47
2018-08-31T11:09:30.189Z,9.53
2018-08-31T11:12:02.695Z,10.07
2018-08-31T11:14:34.937Z,9.37
2018-08-31T11:17:07.487Z,9.40
2018-08-31T11:19:40.428Z,9.80
2018-08-31T11:22:12.821Z,9.30
2018-08-31T11:24:44.952Z,8.93
2018-08-31T11:27:17.528Z,9.40
2018-08-31T11:29:49.831Z,9.43
2018-08-31T11:32:22.525Z,8.50
2018-08-31T11:34:55.611Z,8.80
2018-08-31T11:37:28.183Z,9.03
2018-08-31T11:40:00.500Z,9.40
2018-08-31T11:42:33.247Z,8.90
2018-08-31T11:45:05.591Z,9.20
2018-08-31T11:47:38.009Z,8.37
2018-08-31T11:50:11.043Z,8.40
2018-08-31T11:52:43.010Z,8.43
2018-08-31T11:55:15.437Z,8.00
2018-08-31T11:57:48.006Z,7.33
2018-08-31T12:00:20.685Z,7.50
2018-08-31T12:02:53.218Z,7.37
2018-08-31T12:05:26.048Z,8.57
2018-08-31T12:07:58.635Z,8.07
2018-08-31T12:10:30.426Z,8.80
2018-08-31T12:13:02.826Z,8.60
2018-08-31T12:15:35.816Z,8.47
2018-08-31T12:18:09.477Z,8.80
2018-08-31T12:20:41.828Z,8.00
2018-08-31T12:23:14.393Z,7.57
2018-08-31T12:25:47.725Z,7.87
2018-08-31T12:28:20.513Z,7.50
2018-08-31T12:30:52.970Z,7.27
2018-08-31T12:33:25.587Z,7.83
2018-08-31T12:36:00.896Z,7.87
2018-08-31T12:38:34.956Z,7.40
2018-08-31T12:41:09.042Z,8.07
2018-08-31T12:43:44.435Z,8.10
2018-08-31T12:46:18.366Z,8.00
2018-08-31T12:48:53.446Z,7.83
2018-08-31T12:51:27.263Z,8.10
2018-08-31T12:54:01.288Z,7.77
2018-08-31T12:56:35.202Z,8.00
2018-08-31T12:59:09.430Z,8.00
2018-08-31T13:01:43.181Z,7.87
2018-08-31T13:04:17.002Z,8.23
2018-08-31T13:06:51.148Z,8.27
2018-08-31T13:09:24.946Z,8.37
2018-08-31T13:11:59.013Z,8.43
2018-08-31T13:14:32.060Z,8.03
2018-08-31T13:17:05.741Z,8.80
2018-08-31T13:19:40.001Z,8.13
2018-08-31T13:22:15.121Z,7.83
2018-08-31T13:24:49.003Z,8.30
2018-08-31T13:27:25.187Z,8.67
2018-08-31T13:29:58.908Z,8.10
2018-08-31T13:32:32.207Z,8.50
2018-08-31T13:35:05.709Z,9.00
2018-08-31T13:37:40.745Z,8.80
2018-08-31T13:40:14.888Z,8.70
2018-08-31T13:42:49.802Z,8.70
2018-08-31T13:45:24.566Z,8.17
2018-08-31T13:47:58.513Z,8.40
2018-08-31T13:50:31.703Z,9.17
2018-08-31T13:53:05.287Z,8.90
2018-08-31T13:55:39.509Z,8.80
2018-08-31T13:58:13.683Z,9.03
2018-08-31T14:00:47.639Z,9.50
2018-08-31T14:03:21.555Z,9.37
2018-08-31T14:05:55.365Z,9.40
2018-08-31T14:08:28.272Z,8.60
2018-08-31T14:11:01.867Z,9.03
2018-08-31T14:13:36.880Z,9.10
2018-08-31T14:16:11.084Z,9.40
2018-08-31T14:18:45.865Z,8.93
2018-08-31T14:21:20.074Z,9.27
2018-08-31T14:23:55.045Z,9.47
2018-08-31T14:26:29.492Z,8.97
2018-08-31T14:29:03.219Z,9.60
2018-08-31T14:31:38.882Z,10.07
2018-08-31T14:34:14.364Z,9.57
2018-08-31T14:36:50.635Z,9.70
2018-08-31T14:39:24.910Z,8.80
2018-08-31T14:41:58.511Z,8.80
2018-08-31T14:44:31.729Z,9.43
2018-08-31T14:47:06.514Z,8.90
2018-08-31T14:49:41.091Z,8.87
2018-08-31T14:52:14.934Z,9.23
2018-08-31T14:54:48.603Z,8.90
2018-08-31T14:57:23.346Z,9.27
2018-08-31T14:59:57.972Z,8.90
2018-08-31T15:02:31.281Z,8.97
2018-08-31T15:05:06.222Z,9.23
2018-08-31T15:07:40.487Z,9.00
2018-08-31T15:10:15.973Z,9.87
2018-08-31T15:12:50.102Z,10.60
2018-08-31T15:15:24.305Z,9.50
2018-08-31T15:17:58.263Z,9.87
2018-08-31T15:20:33.408Z,10.67
2018-08-31T15:23:06.742Z,9.27
2018-08-31T15:25:40.852Z,9.57
2018-08-31T15:28:15.078Z,8.37
2018-08-31T15:30:50.751Z,7.60
2018-08-31T15:33:24.197Z,8.03
2018-08-31T15:35:58.283Z,7.80
2018-08-31T15:38:32.041Z,8.23
2018-08-31T15:41:05.260Z,7.80
2018-08-31T15:43:39.300Z,8.00
2018-08-31T15:46:13.053Z,7.57
2018-08-31T15:48:47.120Z,8.17
2018-08-31T15:51:20.884Z,7.90
2018-08-31T15:53:54.554Z,8.80
2018-08-31T15:56:28.338Z,8.17
2018-08-31T15:59:01.740Z,8.70
2018-08-31T16:01:36.098Z,9.33
2018-08-31T16:04:11.178Z,9.10
2018-08-31T16:06:44.962Z,8.87
2018-08-31T16:09:18.607Z,8.10
2018-08-31T16:11:52.091Z,8.83
2018-08-31T16:14:25.328Z,7.93
2018-08-31T16:16:57.918Z,8.33
2018-08-31T16:19:31.217Z,8.53
2018-08-31T16:22:04.615Z,7.60
2018-08-31T16:24:38.536Z,8.23
2018-08-31T16:27:11.786Z,7.97
2018-08-31T16:29:45.401Z,8.10
2018-08-31T16:32:19.134Z,9.73
2018-08-31T16:34:52.417Z,9.90
2018-08-31T16:37:25.226Z,8.63
2018-08-31T16:39:58.001Z,9.20
2018-08-31T16:42:32.244Z,7.80
2018-08-31T16:45:05.370Z,7.60
2018-08-31T16:48:19.816Z,7.30
2018-08-31T16:51:01.610Z,7.90
2018-08-31T16:53:35.211Z,7.87
2018-08-31T16:56:09.967Z,7.83
2018-08-31T16:58:43.586Z,8.17
2018-08-31T17:01:18.178Z,7.70
2018-08-31T17:03:51.691Z,7.67
2018-08-31T17:06:26.047Z,7.73
2018-08-31T17:09:00.711Z,8.40
2018-08-31T17:11:33.254Z,7.80
2018-08-31T17:14:05.669Z,8.63
2018-08-31T17:16:38.360Z,8.53
2018-08-31T17:19:11.128Z,7.40
2018-08-31T17:21:43.615Z,8.03
2018-08-31T17:24:15.801Z,8.70
2018-08-31T17:26:53.043Z,8.50
2018-08-31T17:29:30.288Z,8.40
2018-08-31T17:32:07.476Z,7.83
2018-08-31T17:34:44.833Z,8.10
2018-08-31T17:37:22.220Z,9.00
2018-08-31T17:39:54.907Z,8.07
2018-08-31T17:42:28.405Z,8.53
2018-08-31T17:45:01.353Z,8.40
2018-08-31T17:47:33.478Z,8.63
2018-08-31T17:50:06.716Z,8.70
2018-08-31T17:52:39.263Z,8.63
2018-08-31T17:55:11.947Z,8.43
2018-08-31T17:57:44.660Z,7.67
2018-08-31T18:00:17.456Z,8.17
2018-08-31T18:02:49.598Z,9.07
2018-08-31T18:05:21.815Z,8.23
2018-08-31T18:07:54.325Z,8.97
2018-08-31T18:10:26.721Z,8.37
2018-08-31T18:12:59.149Z,8.67
2018-08-31T18:15:32.058Z,8.70
2018-08-31T18:18:05.097Z,8.57
2018-08-31T18:20:37.294Z,8.20
2018-08-31T18:23:10.552Z,8.00
2018-08-31T18:25:42.665Z,9.17
2018-08-31T18:28:15.536Z,8.50
2018-08-31T18:30:47.777Z,8.30
2018-08-31T18:33:20.563Z,8.23
2018-08-31T18:35:52.907Z,8.33
2018-08-31T18:38:24.793Z,9.03
2018-08-31T18:40:57.450Z,8.20
2018-08-31T18:43:29.951Z,8.60
2018-08-31T18:46:02.793Z,8.50
2018-08-31T18:48:35.108Z,9.40
2018-08-31T18:51:07.485Z,9.60
2018-08-31T18:53:39.661Z,9.67
2018-08-31T18:56:11.593Z,12.50
2018-08-31T18:58:43.734Z,10.83
2018-08-31T19:01:16.257Z,10.07
2018-08-31T19:03:48.492Z,10.27
2018-08-31T19:06:20.605Z,9.33
2018-08-31T19:08:53.498Z,8.90
2018-08-31T19:11:25.913Z,9.67
2018-08-31T19:13:58.378Z,10.43
2018-08-31T19:16:31.897Z,9.80
2018-08-31T19:19:04.398Z,9.87
2018-08-31T19:21:38.032Z,9.70
2018-08-31T19:24:10.578Z,10.47
2018-08-31T19:26:42.741Z,10.53
2018-08-31T19:29:14.787Z,10.20
2018-08-31T19:31:47.118Z,10.03
2018-08-31T19:34:19.874Z,10.00
2018-08-31T19:36:52.368Z,9.10
2018-08-31T19:39:24.744Z,10.43
2018-08-31T19:41:57.469Z,10.33
2018-08-31T19:44:29.829Z,10.90
2018-08-31T19:47:02.340Z,9.80
2018-08-31T19:49:34.525Z,10.67
2018-08-31T19:52:07.798Z,10.03
2018-08-31T19:54:40.788Z,11.13
2018-08-31T19:57:13.003Z,10.00
2018-08-31T19:59:45.992Z,10.50
2018-08-31T20:02:18.376Z,11.07
2018-08-31T20:04:50.834Z,10.80
2018-08-31T20:07:23.589Z,11.00
2018-08-31T20:09:56.150Z,11.57
2018-08-31T20:12:29.021Z,11.10
2018-08-31T20:15:01.343Z,10.87
2018-08-31T20:17:33.932Z,11.17
2018-08-31T20:20:06.529Z,11.13
2018-08-31T20:22:39.337Z,11.40
2018-08-31T20:25:11.453Z,10.90
2018-08-31T20:27:44.717Z,11.10
2018-08-31T20:30:17.161Z,10.80
2018-08-31T20:32:49.548Z,11.10
2018-08-31T20:35:21.978Z,11.20
2018-08-31T20:37:54.439Z,11.20
2018-08-31T20:40:26.674Z,10.63
2018-08-31T20:43:00.658Z,11.43
2018-08-31T20:45:33.316Z,11.47
2018-08-31T20:48:06.249Z,11.30
2018-08-31T20:50:39.538Z,11.33
2018-08-31T20:53:11.766Z,11.60
2018-08-31T20:55:44.199Z,11.77
2018-08-31T20:58:16.424Z,12.57
2018-08-31T21:00:48.807Z,12.47
2018-08-31T21:03:21.220Z,13.17
2018-08-31T21:05:53.727Z,12.63
2018-08-31T21:08:26.796Z,12.87
2018-08-31T21:10:59.209Z,13.00
2018-08-31T21:13:31.576Z,13.63
2018-08-31T21:16:04.977Z,14.13
2018-08-31T21:18:37.653Z,13.27
2018-08-31T21:21:10.348Z,13.20
2018-08-31T21:23:42.514Z,12.60
2018-08-31T21:26:16.132Z,13.33
2018-08-31T21:28:48.482Z,13.03
2018-08-31T21:31:20.530Z,13.27
2018-08-31T21:33:52.904Z,12.77
2018-08-31T21:36:25.294Z,11.97
2018-08-31T21:38:57.839Z,13.87
2018-08-31T21:41:30.081Z,14.57
2018-08-31T21:44:02.287Z,13.30
2018-08-31T21:46:34.586Z,14.03
2018-08-31T21:49:06.969Z,13.10
2018-08-31T21:51:40.217Z,12.93
2018-08-31T21:54:12.505Z,14.50
2018-08-31T21:56:45.070Z,13.47
2018-08-31T21:59:17.385Z,13.60
2018-08-31T22:01:57.057Z,13.43
2018-08-31T22:04:29.727Z,13.90
2018-08-31T22:07:02.648Z,13.23
2018-08-31T22:09:35.321Z,14.10
2018-08-31T22:12:08.070Z,13.47
2018-08-31T22:14:40.461Z,14.20
2018-08-31T22:17:12.910Z,13.70
2018-08-31T22:19:45.517Z,13.40
2018-08-31T22:22:17.902Z,14.13
2018-08-31T22:24:50.005Z,15.10
2018-08-31T22:27:23.638Z,14.23
2018-08-31T22:29:55.814Z,14.43
2018-08-31T22:32:29.616Z,14.37
2018-08-31T22:35:01.669Z,14.13
2018-08-31T22:37:34.292Z,14.37
2018-08-31T22:40:06.442Z,15.40
2018-08-31T22:42:39.134Z,14.33
2018-08-31T22:45:13.442Z,15.33
2018-08-31T22:47:46.609Z,14.60
2018-08-31T22:50:18.881Z,15.67
2018-08-31T22:52:50.983Z,15.20
2018-08-31T22:55:23.496Z,13.80
2018-08-31T22:57:57.520Z,15.67
2018-08-31T23:00:29.828Z,16.30
2018-08-31T23:03:02.144Z,14.70
2018-08-31T23:05:33.971Z,14.80
2018-08-31T23:08:07.001Z,15.97
2018-08-31T23:10:39.091Z,14.80
2018-08-31T23:13:11.352Z,15.60
2018-08-31T23:15:43.602Z,15.37
2018-08-31T23:18:17.064Z,16.17
2018-08-31T23:20:49.408Z,15.80
2018-08-31T23:23:26.189Z,15.33
2018-08-31T23:25:58.683Z,15.80
2018-08-31T23:28:31.582Z,15.33
2018-08-31T23:31:03.553Z,16.93
2018-08-31T23:33:36.123Z,15.33
2018-08-31T23:36:08.332Z,15.43
2018-08-31T23:38:40.585Z,15.83
2018-08-31T23:41:12.558Z,15.67
2018-08-31T23:43:44.588Z,15.30
2018-08-31T23:46:16.621Z,15.13
2018-08-31T23:48:48.811Z,16.33
2018-08-31T23:51:21.066Z,15.43
2018-08-31T23:53:53.106Z,15.73
2018-08-31T23:56:25.663Z,15.67
2018-08-31T23:58:57.927Z,15.67
